Terminal Aerodrome Forecast
Issued by NWS

Home | Current Version | Previous Version | Text Only | Print | Product List | Glossary Off
Versions: 1 2 3 4 5 6 7 8 9 10 11 12 13 14 15 16

000
FTUS43 KPAH 252300
TAFCGI
TAF
KCGI 252320Z 2600/2624 18006KT P6SM SCT150
     FM260800 19004KT 4SM BR SKC
     FM261500 21010G15KT P6SM FEW060=

USA.gov is the U.S. government's official web portal to all federal, state and local government web resources and services.